createdAt,value
2018-01-15T00:00:16.850Z,28.20
2018-01-15T00:02:51.193Z,27.40
2018-01-15T00:05:25.897Z,29.50
2018-01-15T00:07:59.894Z,19.23
2018-01-15T00:10:34.455Z,26.87
2018-01-15T00:13:08.297Z,25.90
2018-01-15T00:15:42.441Z,23.37
2018-01-15T00:18:16.139Z,27.67
2018-01-15T00:20:49.987Z,31.67
2018-01-15T00:23:23.675Z,23.57
2018-01-15T00:25:58.419Z,28.63
2018-01-15T00:28:32.515Z,29.07
2018-01-15T00:31:06.349Z,33.40
2018-01-15T00:33:40.289Z,28.00
2018-01-15T00:36:14.139Z,29.80
2018-01-15T00:38:48.567Z,25.23
2018-01-15T00:41:22.390Z,30.17
2018-01-15T00:43:56.042Z,33.63
2018-01-15T00:46:30.539Z,33.07
2018-01-15T00:49:04.977Z,30.30
2018-01-15T00:51:38.998Z,25.47
2018-01-15T00:54:13.535Z,27.33
2018-01-15T00:56:48.235Z,26.23
2018-01-15T00:59:22.306Z,27.67
2018-01-15T01:01:56.083Z,24.57
2018-01-15T01:04:29.752Z,22.40
2018-01-15T01:07:04.403Z,28.53
2018-01-15T01:09:38.268Z,24.40
2018-01-15T01:12:12.116Z,24.23
2018-01-15T01:14:46.037Z,28.17
2018-01-15T01:17:20.536Z,20.23
2018-01-15T01:19:54.654Z,25.93
2018-01-15T01:22:28.601Z,23.47
2018-01-15T01:25:02.503Z,24.53
2018-01-15T01:27:36.072Z,23.30
2018-01-15T01:30:10.068Z,68.47
2018-01-15T01:32:43.904Z,23.40
2018-01-15T01:35:18.379Z,25.30
2018-01-15T01:37:52.558Z,17.57
2018-01-15T01:40:26.460Z,24.83
2018-01-15T01:43:00.372Z,27.20
2018-01-15T01:45:34.205Z,25.67
2018-01-15T01:48:09.431Z,19.87
2018-01-15T01:50:43.865Z,21.00
2018-01-15T01:53:18.293Z,25.20
2018-01-15T01:55:52.152Z,23.90
2018-01-15T01:58:26.134Z,29.20
2018-01-15T02:01:00.554Z,13.80
2018-01-15T02:03:34.245Z,25.73
2018-01-15T02:06:08.027Z,26.00
2018-01-15T02:08:41.743Z,24.80
2018-01-15T02:11:15.565Z,17.50
2018-01-15T02:13:49.361Z,19.47
2018-01-15T02:16:23.141Z,26.67
2018-01-15T02:18:57.928Z,17.77
2018-01-15T02:21:31.841Z,19.37
2018-01-15T02:24:05.686Z,16.70
2018-01-15T02:26:39.709Z,19.73
2018-01-15T02:29:13.417Z,16.50
2018-01-15T02:31:47.361Z,23.73
2018-01-15T02:34:21.195Z,26.40
2018-01-15T02:36:54.974Z,17.83
2018-01-15T02:39:29.049Z,19.13
2018-01-15T02:42:02.713Z,18.77
2018-01-15T02:44:36.658Z,22.93
2018-01-15T02:47:10.755Z,26.13
2018-01-15T02:49:45.486Z,21.37
2018-01-15T02:52:19.348Z,21.07
2018-01-15T02:54:53.242Z,14.63
2018-01-15T02:57:27.792Z,22.47
2018-01-15T03:00:02.529Z,19.47
2018-01-15T03:02:37.292Z,24.07
2018-01-15T03:07:52.127Z,24.03
2018-01-15T03:10:26.589Z,20.20
2018-01-15T03:13:00.310Z,22.70
2018-01-15T03:15:33.970Z,19.13
2018-01-15T03:18:07.703Z,18.03
2018-01-15T03:20:41.330Z,19.93
2018-01-15T03:23:14.988Z,18.90
2018-01-15T03:25:49.645Z,21.53
2018-01-15T03:28:23.706Z,25.03
2018-01-15T03:30:58.189Z,21.07
2018-01-15T03:33:32.125Z,22.47
2018-01-15T03:36:07.227Z,22.40
2018-01-15T03:38:41.533Z,22.93
2018-01-15T03:41:15.571Z,21.00
2018-01-15T03:43:49.534Z,17.50
2018-01-15T03:46:23.312Z,21.20
2018-01-15T03:48:57.213Z,23.23
2018-01-15T03:51:31.037Z,23.20
2018-01-15T03:54:04.744Z,20.10
2018-01-15T03:56:38.652Z,17.23
2018-01-15T03:59:12.428Z,14.90
2018-01-15T04:01:46.228Z,18.70
2018-01-15T04:04:20.746Z,19.50
2018-01-15T04:06:55.681Z,19.93
2018-01-15T04:09:29.909Z,24.17
2018-01-15T04:12:04.389Z,22.53
2018-01-15T04:14:38.118Z,20.83
2018-01-15T04:17:11.752Z,20.60
2018-01-15T04:19:46.139Z,23.33
2018-01-15T04:22:20.177Z,22.30
2018-01-15T04:24:53.952Z,21.37
2018-01-15T04:27:27.693Z,22.60
2018-01-15T04:30:02.276Z,22.87
2018-01-15T04:32:37.387Z,23.93
2018-01-15T04:35:11.013Z,21.10
2018-01-15T04:37:44.952Z,20.10
2018-01-15T04:40:18.832Z,17.27
2018-01-15T04:42:52.454Z,16.37
2018-01-15T04:45:26.978Z,17.73
2018-01-15T04:48:00.882Z,22.97
2018-01-15T04:50:34.916Z,17.13
2018-01-15T04:53:08.626Z,21.70
2018-01-15T04:55:42.428Z,23.27
2018-01-15T04:58:16.107Z,22.93
2018-01-15T05:00:49.970Z,17.20
2018-01-15T05:03:24.454Z,25.20
2018-01-15T05:05:59.218Z,23.90
2018-01-15T05:08:33.140Z,17.37
2018-01-15T05:11:07.011Z,14.87
2018-01-15T05:13:40.987Z,17.77
2018-01-15T05:16:15.135Z,14.40
2018-01-15T05:18:49.791Z,17.80
2018-01-15T05:21:23.483Z,23.97
2018-01-15T05:23:57.357Z,23.97
2018-01-15T05:26:30.993Z,19.17
2018-01-15T05:29:04.770Z,17.67
2018-01-15T05:31:38.395Z,22.27
2018-01-15T05:34:12.094Z,16.83
2018-01-15T05:36:46.478Z,17.70
2018-01-15T05:39:21.215Z,21.10
2018-01-15T05:41:55.291Z,23.97
2018-01-15T05:44:29.171Z,18.30
2018-01-15T05:47:02.862Z,13.80
2018-01-15T05:49:36.851Z,17.77
2018-01-15T05:52:11.362Z,20.13
2018-01-15T05:54:45.454Z,18.03
2018-01-15T05:57:19.181Z,18.33
2018-01-15T05:59:52.927Z,19.10
2018-01-15T06:02:26.917Z,18.33
2018-01-15T06:05:00.723Z,19.97
2018-01-15T06:07:34.599Z,24.03
2018-01-15T06:10:08.214Z,21.17
2018-01-15T06:12:42.316Z,21.57
2018-01-15T06:15:16.157Z,24.23
2018-01-15T06:17:50.727Z,20.20
2018-01-15T06:20:24.778Z,19.80
2018-01-15T06:22:59.569Z,23.53
2018-01-15T06:25:33.262Z,15.13
2018-01-15T06:28:07.185Z,22.63
2018-01-15T06:30:40.993Z,14.47
2018-01-15T06:33:14.897Z,22.73
2018-01-15T06:35:49.741Z,21.93
2018-01-15T06:38:23.852Z,18.93
2018-01-15T06:40:57.502Z,22.37
2018-01-15T06:43:31.255Z,21.87
2018-01-15T06:46:05.017Z,23.17
2018-01-15T06:48:39.666Z,20.20
2018-01-15T06:51:14.432Z,24.37
2018-01-15T06:53:48.285Z,24.10
2018-01-15T06:56:22.044Z,20.17
2018-01-15T06:58:56.436Z,16.77
2018-01-15T07:01:31.444Z,20.33
2018-01-15T07:04:05.538Z,20.07
2018-01-15T07:06:40.643Z,22.70
2018-01-15T07:09:15.627Z,19.43
2018-01-15T07:11:49.885Z,21.13
2018-01-15T07:14:24.595Z,16.57
2018-01-15T07:16:58.530Z,24.30
2018-01-15T07:19:32.161Z,26.97
2018-01-15T07:22:05.861Z,25.77
2018-01-15T07:24:39.583Z,21.60
2018-01-15T07:27:14.833Z,18.37
2018-01-15T07:29:49.776Z,22.80
2018-01-15T07:32:24.474Z,21.33
2018-01-15T07:34:58.541Z,23.13
2018-01-15T07:37:32.801Z,23.50
2018-01-15T07:40:08.218Z,24.23
2018-01-15T07:42:42.788Z,20.20
2018-01-15T07:45:17.605Z,22.53
2018-01-15T07:47:51.750Z,20.97
2018-01-15T07:50:26.053Z,20.00
2018-01-15T07:53:01.371Z,14.80
2018-01-15T07:55:35.605Z,20.93
2018-01-15T07:58:09.580Z,14.70
2018-01-15T08:00:43.921Z,19.30
2018-01-15T08:03:19.234Z,16.30
2018-01-15T08:05:53.452Z,16.97
2018-01-15T08:08:28.226Z,87.60
2018-01-15T08:11:02.983Z,20.63
2018-01-15T08:13:37.527Z,21.43
2018-01-15T08:16:12.012Z,22.33
2018-01-15T08:18:46.501Z,25.87
2018-01-15T08:21:20.656Z,17.87
2018-01-15T08:23:55.030Z,20.10
2018-01-15T08:26:28.930Z,19.97
2018-01-15T08:29:02.558Z,14.10
2018-01-15T08:31:36.489Z,20.13
2018-01-15T08:34:10.271Z,22.13
2018-01-15T08:36:44.696Z,29.70
2018-01-15T08:39:18.740Z,22.90
2018-01-15T08:41:53.333Z,20.87
2018-01-15T08:44:27.383Z,22.57
2018-01-15T08:47:01.866Z,22.93
2018-01-15T08:49:36.041Z,20.93
2018-01-15T08:52:09.696Z,23.57
2018-01-15T08:54:44.015Z,27.27
2018-01-15T08:57:18.489Z,20.10
2018-01-15T08:59:52.361Z,24.10
2018-01-15T09:02:26.956Z,19.77
2018-01-15T09:05:01.088Z,20.33
2018-01-15T09:07:35.669Z,22.93
2018-01-15T09:10:09.725Z,20.57
2018-01-15T09:12:43.520Z,22.87
2018-01-15T09:15:18.145Z,20.90
2018-01-15T09:17:52.196Z,21.47
2018-01-15T09:20:25.921Z,22.70
2018-01-15T09:23:00.307Z,21.03
2018-01-15T09:25:35.928Z,19.63
2018-01-15T09:28:11.371Z,22.53
2018-01-15T09:30:45.282Z,21.83
2018-01-15T09:33:18.903Z,23.77
2018-01-15T09:35:53.255Z,21.57
2018-01-15T09:38:27.798Z,24.90
2018-01-15T09:41:01.932Z,28.03
2018-01-15T09:43:36.579Z,21.97
2018-01-15T09:46:10.236Z,21.30
2018-01-15T09:48:43.913Z,22.40
2018-01-15T09:51:18.890Z,24.43
2018-01-15T09:53:53.344Z,22.50
2018-01-15T09:56:27.770Z,26.47
2018-01-15T09:59:01.849Z,24.30
2018-01-15T10:01:35.540Z,25.60
2018-01-15T10:04:09.256Z,22.17
2018-01-15T10:06:43.211Z,28.70
2018-01-15T10:09:17.852Z,23.37
2018-01-15T10:11:53.117Z,24.57
2018-01-15T10:14:26.936Z,22.27
2018-01-15T10:17:00.660Z,26.60
2018-01-15T10:19:34.463Z,26.60
2018-01-15T10:22:08.237Z,22.07
2018-01-15T10:24:42.800Z,23.10
2018-01-15T10:27:17.296Z,28.93
2018-01-15T10:29:51.867Z,28.87
2018-01-15T10:32:26.957Z,25.17
2018-01-15T10:35:00.903Z,21.47
2018-01-15T10:37:34.720Z,28.27
2018-01-15T10:40:08.528Z,28.00
2018-01-15T10:42:43.115Z,23.87
2018-01-15T10:45:16.981Z,28.37
2018-01-15T10:47:50.684Z,28.60
2018-01-15T10:50:24.725Z,27.70
2018-01-15T10:52:59.115Z,22.63
2018-01-15T10:55:32.983Z,24.87
2018-01-15T10:58:07.535Z,28.23
2018-01-15T11:00:48.029Z,30.30
2018-01-15T11:03:23.056Z,30.07
2018-01-15T11:05:56.977Z,25.53
2018-01-15T11:08:30.687Z,24.23
2018-01-15T11:11:04.783Z,29.23
2018-01-15T11:13:39.234Z,33.43
2018-01-15T11:16:13.312Z,21.47
2018-01-15T11:18:48.187Z,26.30
2018-01-15T11:21:23.579Z,26.43
2018-01-15T11:23:57.634Z,33.30
2018-01-15T11:26:32.078Z,23.67
2018-01-15T11:29:07.228Z,28.73
2018-01-15T11:31:42.384Z,18.63
2018-01-15T11:34:16.496Z,23.13
2018-01-15T11:36:50.588Z,26.63
2018-01-15T11:39:25.204Z,21.70
2018-01-15T11:42:00.507Z,31.43
2018-01-15T11:44:34.295Z,26.10
2018-01-15T11:47:09.008Z,30.37
2018-01-15T11:49:43.125Z,24.70
2018-01-15T11:52:17.063Z,25.47
2018-01-15T11:54:52.004Z,25.13
2018-01-15T11:57:26.510Z,26.77
2018-01-15T12:00:00.316Z,21.67
2018-01-15T12:02:34.061Z,25.10
2018-01-15T12:05:08.600Z,31.73
2018-01-15T12:07:42.958Z,23.60
2018-01-15T12:10:18.264Z,26.17
2018-01-15T12:12:52.854Z,28.70
2018-01-15T12:15:26.907Z,22.17
2018-01-15T12:18:00.646Z,20.97
2018-01-15T12:20:35.670Z,27.53
2018-01-15T12:23:09.993Z,26.60
2018-01-15T12:25:45.129Z,22.23
2018-01-15T12:28:18.990Z,25.73
2018-01-15T12:30:52.935Z,33.23
2018-01-15T12:33:27.214Z,24.83
2018-01-15T12:36:02.497Z,23.90
2018-01-15T12:38:37.505Z,25.40
2018-01-15T12:41:11.776Z,22.17
2018-01-15T12:43:47.185Z,26.57
2018-01-15T12:46:22.454Z,26.10
2018-01-15T12:48:56.545Z,25.93
2018-01-15T12:51:33.171Z,29.00
2018-01-15T12:54:06.831Z,21.87
2018-01-15T12:56:40.572Z,32.67
2018-01-15T12:59:14.216Z,23.60
2018-01-15T13:01:48.000Z,25.10
2018-01-15T13:04:21.853Z,29.13
2018-01-15T13:06:56.109Z,27.53
2018-01-15T13:09:30.721Z,29.90
2018-01-15T13:12:04.609Z,29.67
2018-01-15T13:14:39.672Z,30.60
2018-01-15T13:17:14.057Z,27.90
2018-01-15T13:19:48.802Z,30.57
2018-01-15T13:22:33.501Z,27.03
2018-01-15T13:25:08.871Z,27.53
2018-01-15T13:27:46.193Z,32.20
2018-01-15T13:30:19.908Z,21.17
2018-01-15T13:32:54.235Z,24.23
2018-01-15T13:35:32.236Z,25.23
2018-01-15T13:38:09.127Z,31.60
2018-01-15T13:40:51.209Z,26.50
2018-01-15T13:43:29.506Z,24.63
2018-01-15T13:46:06.532Z,27.07
2018-01-15T13:48:40.206Z,24.80
2018-01-15T13:51:14.617Z,25.57
2018-01-15T13:54:01.498Z,25.33
2018-01-15T13:56:39.800Z,22.10
2018-01-15T13:59:17.537Z,25.40
2018-01-15T14:04:38.182Z,27.90
2018-01-15T14:07:19.220Z,26.90
2018-01-15T14:10:04.255Z,23.53
2018-01-15T14:12:41.141Z,25.40
2018-01-15T14:15:16.966Z,19.23
2018-01-15T14:17:54.796Z,27.00
2018-01-15T14:20:30.134Z,28.23
2018-01-15T14:23:07.180Z,20.03
2018-01-15T14:25:43.015Z,25.93
2018-01-15T14:28:17.477Z,28.73
2018-01-15T14:30:51.293Z,28.57
2018-01-15T14:33:27.817Z,25.73
2018-01-15T14:36:10.565Z,20.80
2018-01-15T14:38:47.103Z,24.67
2018-01-15T14:41:21.969Z,21.40
2018-01-15T14:44:04.093Z,28.47
2018-01-15T14:46:39.204Z,24.50
2018-01-15T14:49:14.290Z,24.53
2018-01-15T14:51:53.689Z,32.60
2018-01-15T14:57:15.338Z,28.33
2018-01-15T14:59:50.865Z,28.83
2018-01-15T15:02:25.475Z,31.97
2018-01-15T15:04:59.928Z,31.70
2018-01-15T15:07:34.388Z,41.57
2018-01-15T15:10:14.925Z,31.13
2018-01-15T15:12:49.407Z,32.33
2018-01-15T15:15:40.508Z,27.50
2018-01-15T15:18:22.001Z,25.33
2018-01-15T15:20:56.724Z,26.90
2018-01-15T15:23:37.637Z,26.57
2018-01-15T15:26:12.184Z,28.57
2018-01-15T15:28:50.354Z,26.43
2018-01-15T15:31:25.156Z,23.80
2018-01-15T15:34:00.733Z,20.20
2018-01-15T15:36:35.035Z,23.67
2018-01-15T15:39:08.736Z,24.33
2018-01-15T15:41:43.669Z,26.70
2018-01-15T15:44:18.093Z,27.23
2018-01-15T15:46:52.273Z,31.07
2018-01-15T15:49:26.627Z,32.03
2018-01-15T15:52:01.156Z,29.47
2018-01-15T15:54:35.092Z,26.33
2018-01-15T15:57:10.731Z,20.63
2018-01-15T15:59:44.721Z,23.10
2018-01-15T16:02:18.799Z,27.40
2018-01-15T16:04:53.135Z,26.03
2018-01-15T16:07:27.738Z,25.67
2018-01-15T16:10:01.801Z,32.47
2018-01-15T16:12:35.676Z,25.70
2018-01-15T16:15:09.429Z,20.97
2018-01-15T16:17:43.219Z,28.40
2018-01-15T16:20:17.859Z,22.00
2018-01-15T16:22:58.275Z,23.63
2018-01-15T16:25:37.190Z,26.43
2018-01-15T16:28:12.233Z,25.00
2018-01-15T16:30:47.432Z,24.57
2018-01-15T16:33:22.994Z,19.20
2018-01-15T16:35:58.249Z,26.73
2018-01-15T16:38:32.071Z,25.50
2018-01-15T16:41:06.494Z,22.37
2018-01-15T16:43:40.592Z,26.40
2018-01-15T16:46:14.280Z,31.30
2018-01-15T16:48:48.805Z,27.10
2018-01-15T16:51:22.764Z,24.00
2018-01-15T16:53:56.521Z,24.23
2018-01-15T16:56:30.958Z,28.07
2018-01-15T16:59:05.049Z,25.97
2018-01-15T17:01:39.173Z,26.77
2018-01-15T17:04:13.728Z,25.90
2018-01-15T17:06:50.555Z,21.80
2018-01-15T17:09:26.013Z,24.00
2018-01-15T17:11:59.974Z,25.20
2018-01-15T17:14:34.405Z,21.70
2018-01-15T17:17:08.580Z,20.60
2018-01-15T17:19:42.837Z,21.33
2018-01-15T17:22:19.069Z,21.93
2018-01-15T17:24:55.041Z,18.90
2018-01-15T17:27:30.275Z,22.97
2018-01-15T17:30:04.941Z,19.00
2018-01-15T17:32:41.304Z,17.20
2018-01-15T17:35:15.809Z,19.37
2018-01-15T17:37:51.787Z,22.73
2018-01-15T17:40:27.034Z,21.90
2018-01-15T17:43:01.283Z,20.67
2018-01-15T17:45:36.299Z,23.87
2018-01-15T17:48:10.874Z,21.97
2018-01-15T17:50:45.040Z,19.83
2018-01-15T17:53:20.891Z,20.87
2018-01-15T17:55:54.549Z,24.00
2018-01-15T17:58:28.316Z,23.10
2018-01-15T18:01:02.417Z,18.27
2018-01-15T18:03:37.456Z,16.73
2018-01-15T18:06:13.821Z,21.13
2018-01-15T18:08:47.928Z,16.43
2018-01-15T18:11:22.297Z,19.27
2018-01-15T18:13:57.085Z,13.57
2018-01-15T18:16:31.238Z,16.93
2018-01-15T18:19:05.908Z,21.33
2018-01-15T18:21:40.404Z,22.80
2018-01-15T18:24:14.816Z,25.47
2018-01-15T18:26:48.729Z,18.43
2018-01-15T18:29:22.896Z,18.87
2018-01-15T18:31:57.266Z,17.37
2018-01-15T18:34:32.096Z,20.37
2018-01-15T18:37:06.118Z,17.53
2018-01-15T18:39:40.744Z,21.00
2018-01-15T18:42:14.800Z,18.83
2018-01-15T18:44:48.515Z,19.57
2018-01-15T18:47:23.093Z,15.23
2018-01-15T18:49:58.392Z,17.50
2018-01-15T18:52:32.648Z,16.90
2018-01-15T18:55:06.348Z,16.90
2018-01-15T18:57:40.013Z,15.23
2018-01-15T19:00:13.775Z,14.77
2018-01-15T19:02:49.124Z,19.60
2018-01-15T19:05:24.091Z,15.60
2018-01-15T19:07:58.745Z,19.33
2018-01-15T19:10:33.029Z,15.73
2018-01-15T19:13:07.032Z,17.53
2018-01-15T19:15:42.332Z,20.30
2018-01-15T19:18:16.071Z,14.97
2018-01-15T19:20:49.736Z,17.13
2018-01-15T19:23:24.040Z,15.43
2018-01-15T19:25:59.092Z,17.07
2018-01-15T19:28:33.226Z,18.63
2018-01-15T19:31:07.253Z,17.50
2018-01-15T19:33:40.892Z,15.50
2018-01-15T19:36:23.463Z,17.57
2018-01-15T19:38:59.422Z,11.20
2018-01-15T19:41:36.782Z,15.20
2018-01-15T19:47:10.468Z,12.93
2018-01-15T19:49:51.653Z,18.33
2018-01-15T20:06:31.457Z,15.07
2018-01-15T20:09:11.177Z,19.37
2018-01-15T20:11:45.227Z,16.73
2018-01-15T20:14:19.866Z,20.50
2018-01-15T20:16:55.260Z,19.73
2018-01-15T20:19:29.543Z,18.00
2018-01-15T20:22:05.235Z,15.33
2018-01-15T20:24:38.884Z,19.10
2018-01-15T20:27:12.688Z,17.50
2018-01-15T20:29:47.293Z,22.20
2018-01-15T20:32:21.100Z,18.67
2018-01-15T20:34:55.625Z,21.07
2018-01-15T20:37:30.413Z,19.50
2018-01-15T20:40:05.054Z,18.50
2018-01-15T20:42:39.704Z,15.60
2018-01-15T20:45:13.653Z,13.60
2018-01-15T20:47:47.367Z,22.13
2018-01-15T20:50:32.712Z,15.40
2018-01-15T20:53:07.850Z,19.43
2018-01-15T20:55:45.192Z,14.23
2018-01-15T20:58:28.769Z,17.07
2018-01-15T21:03:42.525Z,20.00
2018-01-15T21:06:16.394Z,72.03
2018-01-15T21:08:50.159Z,19.03
2018-01-15T21:11:23.977Z,11.40
2018-01-15T21:13:57.773Z,11.60
2018-01-15T21:16:31.381Z,13.87
2018-01-15T21:19:05.064Z,11.57
2018-01-15T21:21:38.917Z,15.67
2018-01-15T21:24:13.780Z,10.80
2018-01-15T21:26:51.198Z,14.30
2018-01-15T21:29:25.070Z,16.40
2018-01-15T21:32:01.513Z,12.07
2018-01-15T21:34:36.390Z,13.70
2018-01-15T21:39:51.548Z,10.70
2018-01-15T21:42:25.491Z,9.30
2018-01-15T21:44:59.241Z,6.67
2018-01-15T21:47:33.779Z,9.23
2018-01-15T21:50:07.564Z,6.10
2018-01-15T21:52:42.208Z,5.23
2018-01-15T21:55:16.867Z,6.13
2018-01-15T21:57:51.590Z,4.13
2018-01-15T22:00:25.557Z,5.00
2018-01-15T22:02:59.234Z,4.40
2018-01-15T22:05:33.804Z,14.13
2018-01-15T22:08:07.908Z,3.67
2018-01-15T22:10:42.517Z,5.70
2018-01-15T22:13:16.308Z,4.73
2018-01-15T22:15:50.040Z,5.83
2018-01-15T22:18:23.978Z,3.63
2018-01-15T22:20:58.743Z,5.40
2018-01-15T22:23:33.329Z,3.73
2018-01-15T22:26:07.530Z,4.63
2018-01-15T22:28:41.981Z,5.50
2018-01-15T22:31:16.081Z,3.93
2018-01-15T22:33:50.698Z,3.67
2018-01-15T22:36:24.918Z,3.10
2018-01-15T22:38:58.850Z,3.83
2018-01-15T22:41:32.511Z,2.87
2018-01-15T22:44:06.156Z,4.67
2018-01-15T22:46:40.632Z,3.70
2018-01-15T22:49:14.596Z,4.77
2018-01-15T22:51:48.324Z,3.60
2018-01-15T22:54:22.008Z,3.00
2018-01-15T22:56:56.613Z,3.77
2018-01-15T22:59:30.587Z,2.70
2018-01-15T23:02:04.366Z,2.87
2018-01-15T23:04:38.072Z,4.77
2018-01-15T23:07:11.768Z,9.73
2018-01-15T23:09:45.540Z,3.53
2018-01-15T23:12:19.177Z,3.70
2018-01-15T23:14:53.054Z,2.10
2018-01-15T23:17:26.753Z,3.60
2018-01-15T23:20:00.557Z,2.93
2018-01-15T23:22:34.464Z,3.20
2018-01-15T23:25:08.431Z,2.33
2018-01-15T23:27:42.250Z,2.50
2018-01-15T23:30:16.791Z,2.60
2018-01-15T23:32:51.727Z,2.60
2018-01-15T23:35:25.467Z,2.13
2018-01-15T23:37:59.235Z,3.60
2018-01-15T23:40:33.047Z,2.80
2018-01-15T23:43:07.619Z,6.23
2018-01-15T23:45:41.242Z,2.40
2018-01-15T23:48:15.163Z,2.07
2018-01-15T23:50:49.749Z,2.07
2018-01-15T23:53:23.875Z,1.47
2018-01-15T23:55:57.641Z,1.90
2018-01-15T23:58:32.136Z,3.73
